createdAt,value
2019-01-14T00:00:18.487Z,28.07
2019-01-14T00:02:46.338Z,31.47
2019-01-14T00:05:14.583Z,29.73
2019-01-14T00:07:42.578Z,30.73
2019-01-14T00:10:10.429Z,28.90
2019-01-14T00:12:38.303Z,18.83
2019-01-14T00:15:06.429Z,31.83
2019-01-14T00:17:35.105Z,28.97
2019-01-14T00:20:03.386Z,25.57
2019-01-14T00:22:31.294Z,25.77
2019-01-14T00:24:59.505Z,25.63
2019-01-14T00:27:27.449Z,29.43
2019-01-14T00:29:55.316Z,26.97
2019-01-14T00:32:23.325Z,25.40
2019-01-14T00:34:51.399Z,30.10
2019-01-14T00:37:19.209Z,19.97
2019-01-14T00:39:47.091Z,25.60
2019-01-14T00:42:15.439Z,28.97
2019-01-14T00:44:43.381Z,24.07
2019-01-14T00:47:11.274Z,21.57
2019-01-14T00:49:39.142Z,25.10
2019-01-14T00:52:07.079Z,25.90
2019-01-14T00:54:35.010Z,23.50
2019-01-14T00:57:02.854Z,22.13
2019-01-14T00:59:33.756Z,19.87
2019-01-14T01:02:01.668Z,23.93
2019-01-14T01:04:29.542Z,25.23
2019-01-14T01:06:57.484Z,19.03
2019-01-14T01:09:25.298Z,18.60
2019-01-14T01:11:53.166Z,21.53
2019-01-14T01:14:21.057Z,24.47
2019-01-14T01:16:48.951Z,26.87
2019-01-14T01:19:16.848Z,25.93
2019-01-14T01:21:44.643Z,21.57
2019-01-14T01:24:12.626Z,21.53
2019-01-14T01:26:40.612Z,19.57
2019-01-14T01:29:08.622Z,25.60
2019-01-14T01:31:36.492Z,21.27
2019-01-14T01:34:04.439Z,22.53
2019-01-14T01:36:32.256Z,16.73
2019-01-14T01:39:00.133Z,19.07
2019-01-14T01:41:28.320Z,20.20
2019-01-14T01:43:56.165Z,18.37
2019-01-14T01:46:23.988Z,29.20
2019-01-14T01:48:51.884Z,22.00
2019-01-14T01:51:19.730Z,27.10
2019-01-14T01:53:47.552Z,20.37
2019-01-14T01:56:15.429Z,19.80
2019-01-14T01:58:43.266Z,23.23
2019-01-14T02:01:11.120Z,22.07
2019-01-14T02:03:39.027Z,26.13
2019-01-14T02:06:07.027Z,20.57
2019-01-14T02:08:34.845Z,19.53
2019-01-14T02:11:02.694Z,25.23
2019-01-14T02:13:31.383Z,23.77
2019-01-14T02:15:59.179Z,26.70
2019-01-14T02:18:27.063Z,30.30
2019-01-14T02:20:54.953Z,21.17
2019-01-14T02:23:22.763Z,23.67
2019-01-14T02:25:50.658Z,21.23
2019-01-14T02:28:18.478Z,23.77
2019-01-14T02:30:46.346Z,24.47
2019-01-14T02:33:14.259Z,27.57
2019-01-14T02:35:42.072Z,20.77
2019-01-14T02:38:09.992Z,27.93
2019-01-14T02:40:39.115Z,21.77
2019-01-14T02:43:06.931Z,22.73
2019-01-14T02:45:35.085Z,23.97
2019-01-14T02:48:02.956Z,21.67
2019-01-14T02:50:30.785Z,20.13
2019-01-14T02:52:58.607Z,23.30
2019-01-14T02:55:26.747Z,18.50
2019-01-14T02:57:54.550Z,26.33
2019-01-14T03:00:25.941Z,23.60
2019-01-14T03:02:53.791Z,19.87
2019-01-14T03:05:21.683Z,22.83
2019-01-14T03:07:51.026Z,26.93
2019-01-14T03:10:19.094Z,24.27
2019-01-14T03:12:46.962Z,17.87
2019-01-14T03:15:15.601Z,24.67
2019-01-14T03:17:43.477Z,27.27
2019-01-14T03:20:11.819Z,27.73
2019-01-14T03:22:39.689Z,20.00
2019-01-14T03:25:07.946Z,23.83
2019-01-14T03:27:35.911Z,28.60
2019-01-14T03:30:03.858Z,22.73
2019-01-14T03:32:31.781Z,19.83
2019-01-14T03:34:59.671Z,24.40
2019-01-14T03:37:27.506Z,28.07
2019-01-14T03:39:55.404Z,22.63
2019-01-14T03:42:23.350Z,21.27
2019-01-14T03:44:51.184Z,25.27
2019-01-14T03:47:19.052Z,26.00
2019-01-14T03:49:47.248Z,18.33
2019-01-14T03:52:15.441Z,16.23
2019-01-14T03:54:43.267Z,25.20
2019-01-14T03:57:11.215Z,15.17
2019-01-14T03:59:39.104Z,23.03
2019-01-14T04:02:06.937Z,25.53
2019-01-14T04:04:34.772Z,21.80
2019-01-14T04:07:02.581Z,23.33
2019-01-14T04:09:30.443Z,21.33
2019-01-14T04:11:58.419Z,24.40
2019-01-14T04:14:26.275Z,22.50
2019-01-14T04:16:54.151Z,23.67
2019-01-14T04:19:22.374Z,18.37
2019-01-14T04:21:50.190Z,22.97
2019-01-14T04:24:18.036Z,29.53
2019-01-14T04:26:45.922Z,22.83
2019-01-14T04:29:13.771Z,33.70
2019-01-14T04:31:41.628Z,22.53
2019-01-14T04:34:09.514Z,25.53
2019-01-14T04:36:37.436Z,25.13
2019-01-14T04:39:07.590Z,24.83
2019-01-14T04:41:35.374Z,23.77
2019-01-14T04:44:03.222Z,17.30
2019-01-14T04:46:31.159Z,17.87
2019-01-14T04:48:59.100Z,17.77
2019-01-14T04:51:26.996Z,17.20
2019-01-14T04:53:54.913Z,17.80
2019-01-14T04:56:22.882Z,17.87
2019-01-14T04:58:50.749Z,14.93
2019-01-14T05:01:18.564Z,13.57
2019-01-14T05:03:46.384Z,17.20
2019-01-14T05:06:14.211Z,19.77
2019-01-14T05:08:45.144Z,18.27
2019-01-14T05:11:12.947Z,12.33
2019-01-14T05:13:40.782Z,13.53
2019-01-14T05:16:08.677Z,17.43
2019-01-14T05:18:36.520Z,17.60
2019-01-14T05:21:04.369Z,9.43
2019-01-14T05:23:32.236Z,14.27
2019-01-14T05:26:00.066Z,11.87
2019-01-14T05:28:27.914Z,13.43
2019-01-14T05:30:55.809Z,25.13
2019-01-14T05:33:24.032Z,14.93
2019-01-14T05:35:54.639Z,13.60
2019-01-14T05:38:22.518Z,14.90
2019-01-14T05:40:50.406Z,16.60
2019-01-14T05:43:18.206Z,11.77
2019-01-14T05:45:46.046Z,11.60
2019-01-14T05:48:13.866Z,6.03
2019-01-14T05:50:41.650Z,8.43
2019-01-14T05:53:09.740Z,8.37
2019-01-14T05:55:37.564Z,12.87
2019-01-14T05:58:05.407Z,9.87
2019-01-14T06:00:58.851Z,12.30
2019-01-14T06:03:26.687Z,13.03
2019-01-14T06:05:54.547Z,11.80
2019-01-14T06:08:22.437Z,11.60
2019-01-14T06:10:50.249Z,11.33
2019-01-14T06:13:18.151Z,13.13
2019-01-14T06:15:46.013Z,15.87
2019-01-14T06:18:15.357Z,14.27
2019-01-14T06:20:43.356Z,13.80
2019-01-14T06:23:11.203Z,10.17
2019-01-14T06:25:39.092Z,10.70
2019-01-14T06:28:07.013Z,10.67
2019-01-14T06:30:35.695Z,14.63
2019-01-14T06:33:03.715Z,12.27
2019-01-14T06:35:31.578Z,12.07
2019-01-14T06:37:59.507Z,12.10
2019-01-14T06:40:27.321Z,13.27
2019-01-14T06:42:55.241Z,16.30
2019-01-14T06:45:23.388Z,11.47
2019-01-14T06:47:51.222Z,11.33
2019-01-14T06:50:19.320Z,15.93
2019-01-14T06:52:47.144Z,12.87
2019-01-14T06:55:15.060Z,10.30
2019-01-14T06:57:42.941Z,11.30
2019-01-14T07:00:12.885Z,11.57
2019-01-14T07:02:41.988Z,12.60
2019-01-14T07:05:09.895Z,9.93
2019-01-14T07:07:37.743Z,12.40
2019-01-14T07:10:06.491Z,9.83
2019-01-14T07:12:34.335Z,7.70
2019-01-14T07:15:02.283Z,14.50
2019-01-14T07:17:30.076Z,8.80
2019-01-14T07:19:57.891Z,15.57
2019-01-14T07:22:25.781Z,14.73
2019-01-14T07:24:53.653Z,13.43
2019-01-14T07:27:21.444Z,11.43
2019-01-14T07:29:50.919Z,9.67
2019-01-14T07:32:21.535Z,14.77
2019-01-14T07:34:49.425Z,11.67
2019-01-14T07:37:17.308Z,19.63
2019-01-14T07:39:45.154Z,13.83
2019-01-14T07:42:13.006Z,15.47
2019-01-14T07:44:41.284Z,20.77
2019-01-14T07:47:09.187Z,13.30
2019-01-14T07:49:37.041Z,15.43
2019-01-14T07:52:05.004Z,12.33
2019-01-14T07:54:32.848Z,16.23
2019-01-14T07:57:00.799Z,16.87
2019-01-14T07:59:28.782Z,18.47
2019-01-14T08:01:56.971Z,18.67
2019-01-14T08:04:24.829Z,18.93
2019-01-14T08:06:54.211Z,15.57
2019-01-14T08:09:22.040Z,10.73
2019-01-14T08:11:49.945Z,16.00
2019-01-14T08:14:17.831Z,16.23
2019-01-14T08:16:45.692Z,13.07
2019-01-14T08:19:13.507Z,15.60
2019-01-14T08:21:41.384Z,14.27
2019-01-14T08:24:09.237Z,16.77
2019-01-14T08:26:37.123Z,12.03
2019-01-14T08:29:05.004Z,16.50
2019-01-14T08:31:33.965Z,11.97
2019-01-14T08:34:02.759Z,10.50
2019-01-14T08:36:30.638Z,13.53
2019-01-14T08:38:58.615Z,14.20
2019-01-14T08:41:31.306Z,13.33
2019-01-14T08:44:03.772Z,10.77
2019-01-14T08:46:32.206Z,12.47
2019-01-14T08:49:00.176Z,16.93
2019-01-14T08:51:28.078Z,17.97
2019-01-14T08:53:56.013Z,16.17
2019-01-14T08:56:26.364Z,13.43
2019-01-14T08:58:54.377Z,13.70
2019-01-14T09:01:22.217Z,9.90
2019-01-14T09:03:50.212Z,11.20
2019-01-14T09:06:18.211Z,11.57
2019-01-14T09:08:46.051Z,8.80
2019-01-14T09:11:13.964Z,12.53
2019-01-14T09:13:41.888Z,10.53
2019-01-14T09:16:09.776Z,13.60
2019-01-14T09:18:37.619Z,10.47
2019-01-14T09:21:05.442Z,8.67
2019-01-14T09:23:33.390Z,9.70
2019-01-14T09:26:01.242Z,8.57
2019-01-14T09:28:29.541Z,7.67
2019-01-14T09:30:57.364Z,8.53
2019-01-14T09:33:25.298Z,10.47
2019-01-14T09:35:53.280Z,5.13
2019-01-14T09:38:23.488Z,8.53
2019-01-14T09:40:52.584Z,6.83
2019-01-14T09:43:20.547Z,5.67
2019-01-14T09:45:48.398Z,7.63
2019-01-14T09:48:16.312Z,8.27
2019-01-14T09:50:45.675Z,5.67
2019-01-14T09:53:13.511Z,10.07
2019-01-14T09:55:41.919Z,8.50
2019-01-14T09:58:10.169Z,6.43
2019-01-14T10:00:39.465Z,9.57
2019-01-14T10:03:07.398Z,7.73
2019-01-14T10:05:35.350Z,5.93
2019-01-14T10:08:03.405Z,9.20
2019-01-14T10:10:31.310Z,7.80
2019-01-14T10:12:59.223Z,7.03
2019-01-14T10:15:28.024Z,8.70
2019-01-14T10:18:08.080Z,7.17
2019-01-14T10:20:35.771Z,3.53
2019-01-14T10:23:03.637Z,8.87
2019-01-14T10:25:31.613Z,5.70
2019-01-14T10:27:59.499Z,5.90
2019-01-14T10:30:28.797Z,6.97
2019-01-14T10:32:59.464Z,5.17
2019-01-14T10:35:27.490Z,6.23
2019-01-14T10:37:55.419Z,6.40
2019-01-14T10:40:23.342Z,7.63
2019-01-14T10:42:51.416Z,3.87
2019-01-14T10:45:20.236Z,7.00
2019-01-14T10:47:48.199Z,8.23
2019-01-14T10:50:16.089Z,5.67
2019-01-14T10:52:44.043Z,10.03
2019-01-14T10:55:12.465Z,5.80
2019-01-14T10:57:40.987Z,4.40
2019-01-14T11:00:16.096Z,6.70
2019-01-14T11:02:47.974Z,9.90
2019-01-14T11:05:17.048Z,7.03
2019-01-14T11:07:45.009Z,3.67
2019-01-14T11:10:13.519Z,9.60
2019-01-14T11:12:41.575Z,8.70
2019-01-14T11:15:10.733Z,6.13
2019-01-14T11:17:38.671Z,7.07
2019-01-14T11:20:07.351Z,8.67
2019-01-14T11:22:35.204Z,6.50
2019-01-14T11:25:03.369Z,9.17
2019-01-14T11:27:31.204Z,5.97
2019-01-14T11:29:59.203Z,5.90
2019-01-14T11:32:27.127Z,5.63
2019-01-14T11:34:54.996Z,4.63
2019-01-14T11:37:22.949Z,10.20
2019-01-14T11:39:50.943Z,5.73
2019-01-14T11:42:19.112Z,6.37
2019-01-14T11:44:47.418Z,7.67
2019-01-14T11:47:15.376Z,4.80
2019-01-14T11:50:04.133Z,8.33
2019-01-14T11:52:32.063Z,10.27
2019-01-14T11:54:59.956Z,6.00
2019-01-14T11:57:28.431Z,8.97
2019-01-14T11:59:56.386Z,7.33
2019-01-14T12:02:24.368Z,6.30
2019-01-14T12:04:52.354Z,5.53
2019-01-14T12:07:24.468Z,6.23
2019-01-14T12:09:52.383Z,5.07
2019-01-14T12:12:21.569Z,4.97
2019-01-14T12:14:51.100Z,5.10
2019-01-14T12:17:19.363Z,5.97
2019-01-14T12:19:50.299Z,6.13
2019-01-14T12:22:18.379Z,4.10
2019-01-14T12:24:51.864Z,7.30
2019-01-14T12:27:21.014Z,7.03
2019-01-14T12:29:49.394Z,8.90
2019-01-14T12:32:17.534Z,7.10
2019-01-14T12:34:45.500Z,6.17
2019-01-14T12:37:15.609Z,8.37
2019-01-14T12:39:44.484Z,8.87
2019-01-14T12:42:12.492Z,7.13
2019-01-14T12:44:40.450Z,10.90
2019-01-14T12:47:08.423Z,8.57
2019-01-14T12:49:44.024Z,7.67
2019-01-14T12:52:12.634Z,6.13
2019-01-14T12:54:42.100Z,5.70
2019-01-14T12:57:11.498Z,4.37
2019-01-14T12:59:39.549Z,5.13
2019-01-14T13:02:09.292Z,7.60
2019-01-14T13:04:37.353Z,5.40
2019-01-14T13:07:07.272Z,10.80
2019-01-14T13:09:38.502Z,6.13
2019-01-14T13:12:06.653Z,6.77
2019-01-14T13:14:35.041Z,7.50
2019-01-14T13:17:03.096Z,7.83
2019-01-14T13:19:31.023Z,11.10
2019-01-14T13:21:58.937Z,11.90
2019-01-14T13:24:26.873Z,7.03
2019-01-14T13:26:54.939Z,7.23
2019-01-14T13:29:24.539Z,7.63
2019-01-14T13:31:52.839Z,6.60
2019-01-14T13:34:20.953Z,5.43
2019-01-14T13:36:49.290Z,7.37
2019-01-14T13:39:20.537Z,7.43
2019-01-14T13:41:48.485Z,5.13
2019-01-14T13:44:16.351Z,8.20
2019-01-14T13:46:44.263Z,8.17
2019-01-14T13:49:12.335Z,8.10
2019-01-14T13:51:40.403Z,10.87
2019-01-14T13:54:10.824Z,9.07
2019-01-14T13:56:39.180Z,8.17
2019-01-14T13:59:07.685Z,11.27
2019-01-14T14:01:35.685Z,9.00
2019-01-14T14:04:13.564Z,8.60
2019-01-14T14:06:47.612Z,10.37
2019-01-14T14:09:16.632Z,9.47
2019-01-14T14:11:45.549Z,6.13
2019-01-14T14:14:13.544Z,7.80
2019-01-14T14:16:48.834Z,6.43
2019-01-14T14:19:16.781Z,10.53
2019-01-14T14:21:44.806Z,9.93
2019-01-14T14:24:12.898Z,10.03
2019-01-14T14:26:41.431Z,5.60
2019-01-14T14:29:10.461Z,10.17
2019-01-14T14:31:38.797Z,9.67
2019-01-14T14:34:08.667Z,8.43
2019-01-14T14:36:36.660Z,8.47
2019-01-14T14:39:06.523Z,12.53
2019-01-14T14:41:34.512Z,11.07
2019-01-14T14:44:04.999Z,11.37
2019-01-14T14:46:33.318Z,9.80
2019-01-14T14:49:01.279Z,11.13
2019-01-14T14:51:29.103Z,10.20
2019-01-14T14:53:58.033Z,7.90
2019-01-14T14:56:26.926Z,7.30
2019-01-14T14:58:55.290Z,8.17
2019-01-14T15:01:23.392Z,10.70
2019-01-14T15:03:51.850Z,6.93
2019-01-14T15:06:20.174Z,5.73
2019-01-14T15:08:50.580Z,9.10
2019-01-14T15:11:18.915Z,8.20
2019-01-14T15:13:49.520Z,6.83
2019-01-14T15:16:21.118Z,10.93
2019-01-14T15:18:50.124Z,7.47
2019-01-14T15:21:18.047Z,12.10
2019-01-14T15:23:47.253Z,8.93
2019-01-14T15:26:15.263Z,10.67
2019-01-14T15:28:43.259Z,8.53
2019-01-14T15:31:13.876Z,10.90
2019-01-14T15:33:41.979Z,9.73
2019-01-14T15:36:10.778Z,9.37
2019-01-14T15:38:39.841Z,9.70
2019-01-14T15:41:10.133Z,7.60
2019-01-14T15:43:49.635Z,11.30
2019-01-14T15:46:18.153Z,11.27
2019-01-14T15:49:14.026Z,12.80
2019-01-14T15:52:23.262Z,13.73
2019-01-14T15:54:55.390Z,11.07
2019-01-14T15:57:32.738Z,6.20
2019-01-14T16:00:01.083Z,11.67
2019-01-14T16:02:29.954Z,17.70
2019-01-14T16:05:00.846Z,13.57
2019-01-14T16:07:30.826Z,10.80
2019-01-14T16:09:59.132Z,7.97
2019-01-14T16:12:49.509Z,10.33
2019-01-14T16:15:46.600Z,10.33
2019-01-14T16:18:55.500Z,10.37
2019-01-14T16:21:24.485Z,11.37
2019-01-14T16:23:53.671Z,9.60
2019-01-14T16:26:22.376Z,7.60
2019-01-14T16:28:50.899Z,12.60
2019-01-14T16:31:18.927Z,12.63
2019-01-14T16:33:47.482Z,13.97
2019-01-14T16:36:16.395Z,13.00
2019-01-14T16:38:45.016Z,9.90
2019-01-14T16:41:12.919Z,8.87
2019-01-14T16:43:40.942Z,12.43
2019-01-14T16:46:08.857Z,6.90
2019-01-14T16:48:36.948Z,8.83
2019-01-14T16:51:04.905Z,8.50
2019-01-14T16:53:32.793Z,9.80
2019-01-14T16:56:01.370Z,11.07
2019-01-14T16:58:29.582Z,7.00
2019-01-14T17:00:57.516Z,9.63
2019-01-14T17:03:25.522Z,9.83
2019-01-14T17:05:53.909Z,17.43
2019-01-14T17:08:21.864Z,4.97
2019-01-14T17:10:51.317Z,9.03
2019-01-14T17:13:19.173Z,10.33
2019-01-14T17:15:47.310Z,8.33
2019-01-14T17:18:15.158Z,6.20
2019-01-14T17:20:43.187Z,10.20
2019-01-14T17:23:11.078Z,6.53
2019-01-14T17:25:38.995Z,16.83
2019-01-14T17:28:06.887Z,10.60
2019-01-14T17:30:34.847Z,12.40
2019-01-14T17:33:03.788Z,10.73
2019-01-14T17:35:31.819Z,11.47
2019-01-14T17:38:00.551Z,12.97
2019-01-14T17:40:32.533Z,10.47
2019-01-14T17:42:58.112Z,12.07
2019-01-14T17:45:26.080Z,13.60
2019-01-14T17:47:53.920Z,7.77
2019-01-14T17:50:21.788Z,8.37
2019-01-14T17:52:49.695Z,10.47
2019-01-14T17:55:17.519Z,10.10
2019-01-14T17:57:45.405Z,10.27
2019-01-14T18:00:17.392Z,8.17
2019-01-14T18:02:45.313Z,8.97
2019-01-14T18:05:13.297Z,9.60
2019-01-14T18:07:41.188Z,8.07
2019-01-14T18:10:09.884Z,9.97
2019-01-14T18:12:38.095Z,7.53
2019-01-14T18:15:05.984Z,11.83
2019-01-14T18:17:34.296Z,12.30
2019-01-14T18:20:02.331Z,12.73
2019-01-14T18:22:30.204Z,11.33
2019-01-14T18:24:58.056Z,9.00
2019-01-14T18:27:28.467Z,10.37
2019-01-14T18:29:57.768Z,10.53
2019-01-14T18:32:25.723Z,6.43
2019-01-14T18:34:53.634Z,8.33
2019-01-14T18:37:23.751Z,7.60
2019-01-14T18:39:51.604Z,8.50
2019-01-14T18:42:19.649Z,9.33
2019-01-14T18:44:48.210Z,10.33
2019-01-14T18:47:25.435Z,11.07
2019-01-14T18:49:53.415Z,10.93
2019-01-14T18:52:21.291Z,6.50
2019-01-14T18:54:55.254Z,12.80
2019-01-14T18:57:23.269Z,9.17
2019-01-14T18:59:51.319Z,11.57
2019-01-14T19:02:21.551Z,12.57
2019-01-14T19:04:49.451Z,7.23
2019-01-14T19:07:17.479Z,8.10
2019-01-14T19:09:45.340Z,10.50
2019-01-14T19:12:13.394Z,10.40
2019-01-14T19:14:41.279Z,10.43
2019-01-14T19:17:09.695Z,7.40
2019-01-14T19:19:37.660Z,13.23
2019-01-14T19:22:06.456Z,10.97
2019-01-14T19:24:34.335Z,12.47
2019-01-14T19:27:02.643Z,9.23
2019-01-14T19:29:30.601Z,10.93
2019-01-14T19:31:58.489Z,11.50
2019-01-14T19:34:26.384Z,10.57
2019-01-14T19:36:55.431Z,11.27
2019-01-14T19:39:23.389Z,9.53
2019-01-14T19:41:51.497Z,10.23
2019-01-14T19:44:19.360Z,7.43
2019-01-14T19:46:47.276Z,5.30
2019-01-14T19:49:15.163Z,7.37
2019-01-14T19:51:43.007Z,10.23
2019-01-14T19:54:10.908Z,6.43
2019-01-14T19:56:41.585Z,11.50
2019-01-14T19:59:09.405Z,11.63
2019-01-14T20:01:43.332Z,5.57
2019-01-14T20:04:11.588Z,8.87
2019-01-14T20:06:39.409Z,8.80
2019-01-14T20:09:07.365Z,8.13
2019-01-14T20:11:35.304Z,7.60
2019-01-14T20:14:03.171Z,8.93
2019-01-14T20:16:31.123Z,9.90
2019-01-14T20:18:58.994Z,6.13
2019-01-14T20:21:26.912Z,6.90
2019-01-14T20:23:56.856Z,10.00
2019-01-14T20:26:24.788Z,11.83
2019-01-14T20:29:11.095Z,8.90
2019-01-14T20:31:39.025Z,9.40
2019-01-14T20:34:06.945Z,7.03
2019-01-14T20:36:34.946Z,6.50
2019-01-14T20:39:35.082Z,7.60
2019-01-14T20:42:05.118Z,12.40
2019-01-14T20:44:46.363Z,10.13
2019-01-14T20:47:15.939Z,13.73
2019-01-14T20:49:49.081Z,10.07
2019-01-14T20:52:31.673Z,9.23
2019-01-14T20:54:59.527Z,9.00
2019-01-14T20:57:28.565Z,8.10
2019-01-14T20:59:56.470Z,6.93
2019-01-14T21:02:24.286Z,7.73
2019-01-14T21:04:52.274Z,7.53
2019-01-14T21:07:20.202Z,9.53
2019-01-14T21:09:48.135Z,6.57
2019-01-14T21:12:16.059Z,11.50
2019-01-14T21:14:44.382Z,8.70
2019-01-14T21:17:12.245Z,6.77
2019-01-14T21:19:40.062Z,6.97
2019-01-14T21:22:08.005Z,14.80
2019-01-14T21:24:35.860Z,13.80
2019-01-14T21:27:03.741Z,9.07
2019-01-14T21:29:31.698Z,11.97
2019-01-14T21:31:59.791Z,9.07
2019-01-14T21:34:27.748Z,9.97
2019-01-14T21:36:56.019Z,8.10
2019-01-14T21:39:24.164Z,11.63
2019-01-14T21:41:52.224Z,8.00
2019-01-14T21:44:22.907Z,8.70
2019-01-14T21:46:51.807Z,9.93
2019-01-14T21:49:19.877Z,6.83
2019-01-14T21:51:48.128Z,6.97
2019-01-14T21:54:18.815Z,8.17
2019-01-14T21:56:46.678Z,8.63
2019-01-14T21:59:14.617Z,8.57
2019-01-14T22:01:45.386Z,9.77
2019-01-14T22:04:13.363Z,8.90
2019-01-14T22:06:41.268Z,6.67
2019-01-14T22:09:10.146Z,6.83
2019-01-14T22:11:38.770Z,7.60
2019-01-14T22:14:07.016Z,6.83
2019-01-14T22:16:34.889Z,7.13
2019-01-14T22:19:04.910Z,9.57
2019-01-14T22:21:32.850Z,7.90
2019-01-14T22:24:00.741Z,9.13
2019-01-14T22:26:28.688Z,7.73
2019-01-14T22:28:56.573Z,9.37
2019-01-14T22:31:25.909Z,8.00
2019-01-14T22:33:53.922Z,13.37
2019-01-14T22:36:22.121Z,7.33
2019-01-14T22:38:52.097Z,7.27
2019-01-14T22:41:20.148Z,7.30
2019-01-14T22:43:48.115Z,8.17
2019-01-14T22:46:16.053Z,13.03
2019-01-14T22:48:56.088Z,10.40
2019-01-14T22:51:53.635Z,8.78
2019-01-14T22:54:21.595Z,9.83
2019-01-14T22:56:49.474Z,10.73
2019-01-14T22:59:17.431Z,11.80
2019-01-14T23:01:47.984Z,13.07
2019-01-14T23:04:16.292Z,7.30
2019-01-14T23:06:44.166Z,8.67
2019-01-14T23:09:12.105Z,6.87
2019-01-14T23:11:39.941Z,7.60
2019-01-14T23:14:07.849Z,7.57
2019-01-14T23:16:35.758Z,7.47
2019-01-14T23:19:03.696Z,7.57
2019-01-14T23:21:31.535Z,8.30
2019-01-14T23:23:59.522Z,9.83
2019-01-14T23:26:27.449Z,9.87
2019-01-14T23:28:55.367Z,8.70
2019-01-14T23:31:23.230Z,12.03
2019-01-14T23:33:51.087Z,8.00
2019-01-14T23:36:19.108Z,13.17
2019-01-14T23:38:47.271Z,8.50
2019-01-14T23:41:17.708Z,9.50
2019-01-14T23:43:45.565Z,8.37
2019-01-14T23:46:13.487Z,10.07
2019-01-14T23:48:41.349Z,8.60
2019-01-14T23:51:09.223Z,9.60
2019-01-14T23:53:37.206Z,8.90
2019-01-14T23:56:05.076Z,9.37
2019-01-14T23:58:33.025Z,11.27
